sensor_id;sensor_type;location;lat;lon;timestamp;P1;durP1;ratioP1;P2;durP2;ratioP2
54795;SDS011;40693;43.884;20.340;2023-02-24T00:00:58;41.67;;;24.98;;
54795;SDS011;40693;43.884;20.340;2023-02-24T00:03:33;45.13;;;29.08;;
54795;SDS011;40693;43.884;20.340;2023-02-24T00:06:01;41.78;;;27.17;;
54795;SDS011;40693;43.884;20.340;2023-02-24T00:08:33;47.25;;;29.23;;
54795;SDS011;40693;43.884;20.340;2023-02-24T00:11:05;38.08;;;24.55;;
54795;SDS011;40693;43.884;20.340;2023-02-24T00:13:46;34.35;;;22.02;;
54795;SDS011;40693;43.884;20.340;2023-02-24T00:22:24;81.40;;;44.05;;
54795;SDS011;40693;43.884;20.340;2023-02-24T00:24:49;55.00;;;31.83;;
54795;SDS011;40693;43.884;20.340;2023-02-24T00:31:05;55.50;;;31.38;;
54795;SDS011;40693;43.884;20.340;2023-02-24T00:33:41;44.35;;;29.17;;
54795;SDS011;40693;43.884;20.340;2023-02-24T00:36:20;36.03;;;23.75;;
54795;SDS011;40693;43.884;20.340;2023-02-24T00:38:50;33.38;;;21.70;;
54795;SDS011;40693;43.884;20.340;2023-02-24T00:41:21;39.92;;;20.95;;
54795;SDS011;40693;43.884;20.340;2023-02-24T00:43:58;31.25;;;20.85;;
54795;SDS011;40693;43.884;20.340;2023-02-24T00:46:44;31.92;;;22.50;;
54795;SDS011;40693;43.884;20.340;2023-02-24T00:52:21;28.90;;;18.77;;
54795;SDS011;40693;43.884;20.340;2023-02-24T00:58:19;26.08;;;16.70;;
54795;SDS011;40693;43.884;20.340;2023-02-24T01:00:56;27.05;;;18.05;;
54795;SDS011;40693;43.884;20.340;2023-02-24T01:03:30;40.17;;;24.08;;
54795;SDS011;40693;43.884;20.340;2023-02-24T01:05:59;29.23;;;20.05;;
54795;SDS011;40693;43.884;20.340;2023-02-24T01:08:27;81.07;;;45.40;;
54795;SDS011;40693;43.884;20.340;2023-02-24T01:14:13;95.55;;;47.63;;
54795;SDS011;40693;43.884;20.340;2023-02-24T01:16:49;146.82;;;72.85;;
54795;SDS011;40693;43.884;20.340;2023-02-24T01:19:23;138.60;;;64.20;;
54795;SDS011;40693;43.884;20.340;2023-02-24T01:22:07;140.55;;;62.42;;
54795;SDS011;40693;43.884;20.340;2023-02-24T01:24:39;91.00;;;44.10;;
54795;SDS011;40693;43.884;20.340;2023-02-24T01:27:24;49.38;;;26.88;;
54795;SDS011;40693;43.884;20.340;2023-02-24T01:30:04;37.45;;;21.65;;
54795;SDS011;40693;43.884;20.340;2023-02-24T01:32:50;46.38;;;26.10;;
54795;SDS011;40693;43.884;20.340;2023-02-24T01:35:16;47.47;;;27.80;;
54795;SDS011;40693;43.884;20.340;2023-02-24T01:37:42;41.20;;;25.42;;
54795;SDS011;40693;43.884;20.340;2023-02-24T01:46:35;39.20;;;25.10;;
54795;SDS011;40693;43.884;20.340;2023-02-24T01:49:12;38.03;;;23.00;;
54795;SDS011;40693;43.884;20.340;2023-02-24T01:54:44;30.27;;;19.92;;
54795;SDS011;40693;43.884;20.340;2023-02-24T01:57:16;32.00;;;21.35;;
54795;SDS011;40693;43.884;20.340;2023-02-24T01:59:45;29.95;;;19.45;;
54795;SDS011;40693;43.884;20.340;2023-02-24T02:05:18;43.03;;;22.45;;
54795;SDS011;40693;43.884;20.340;2023-02-24T02:10:54;46.42;;;28.30;;
54795;SDS011;40693;43.884;20.340;2023-02-24T02:13:38;37.78;;;24.92;;
54795;SDS011;40693;43.884;20.340;2023-02-24T02:24:56;39.03;;;23.20;;
54795;SDS011;40693;43.884;20.340;2023-02-24T02:37:25;37.28;;;22.02;;
54795;SDS011;40693;43.884;20.340;2023-02-24T02:49:23;33.58;;;18.63;;
54795;SDS011;40693;43.884;20.340;2023-02-24T02:52:21;28.15;;;18.65;;
54795;SDS011;40693;43.884;20.340;2023-02-24T02:55:06;28.25;;;17.10;;
54795;SDS011;40693;43.884;20.340;2023-02-24T02:57:57;25.85;;;16.58;;
54795;SDS011;40693;43.884;20.340;2023-02-24T03:00:32;30.83;;;16.98;;
54795;SDS011;40693;43.884;20.340;2023-02-24T03:06:48;29.85;;;16.88;;
54795;SDS011;40693;43.884;20.340;2023-02-24T03:09:40;26.13;;;17.73;;
54795;SDS011;40693;43.884;20.340;2023-02-24T03:12:19;28.35;;;17.85;;
54795;SDS011;40693;43.884;20.340;2023-02-24T03:14:48;28.45;;;17.85;;
54795;SDS011;40693;43.884;20.340;2023-02-24T03:17:18;34.70;;;18.80;;
54795;SDS011;40693;43.884;20.340;2023-02-24T03:19:48;34.65;;;19.50;;
54795;SDS011;40693;43.884;20.340;2023-02-24T03:23:02;29.27;;;17.27;;
54795;SDS011;40693;43.884;20.340;2023-02-24T03:25:38;23.42;;;16.70;;
54795;SDS011;40693;43.884;20.340;2023-02-24T03:31:18;31.48;;;17.40;;
54795;SDS011;40693;43.884;20.340;2023-02-24T03:34:13;20.60;;;16.33;;
54795;SDS011;40693;43.884;20.340;2023-02-24T03:36:58;27.25;;;18.77;;
54795;SDS011;40693;43.884;20.340;2023-02-24T03:39:58;29.70;;;18.45;;
54795;SDS011;40693;43.884;20.340;2023-02-24T03:43:12;28.38;;;19.13;;
54795;SDS011;40693;43.884;20.340;2023-02-24T03:45:54;30.13;;;19.15;;
54795;SDS011;40693;43.884;20.340;2023-02-24T03:48:31;31.98;;;20.90;;
54795;SDS011;40693;43.884;20.340;2023-02-24T03:51:12;34.88;;;22.27;;
54795;SDS011;40693;43.884;20.340;2023-02-24T03:57:16;34.42;;;22.25;;
54795;SDS011;40693;43.884;20.340;2023-02-24T03:59:53;28.98;;;20.48;;
54795;SDS011;40693;43.884;20.340;2023-02-24T04:02:55;28.35;;;19.42;;
54795;SDS011;40693;43.884;20.340;2023-02-24T04:05:39;33.58;;;18.95;;
54795;SDS011;40693;43.884;20.340;2023-02-24T04:08:24;31.13;;;19.45;;
54795;SDS011;40693;43.884;20.340;2023-02-24T04:10:59;36.63;;;26.00;;
54795;SDS011;40693;43.884;20.340;2023-02-24T04:13:49;33.00;;;21.25;;
54795;SDS011;40693;43.884;20.340;2023-02-24T04:16:59;30.25;;;19.90;;
54795;SDS011;40693;43.884;20.340;2023-02-24T04:19:28;30.83;;;19.85;;
54795;SDS011;40693;43.884;20.340;2023-02-24T04:21:57;34.17;;;21.50;;
54795;SDS011;40693;43.884;20.340;2023-02-24T04:24:41;28.40;;;19.80;;
54795;SDS011;40693;43.884;20.340;2023-02-24T04:27:23;32.85;;;21.75;;
54795;SDS011;40693;43.884;20.340;2023-02-24T04:29:59;28.75;;;19.95;;
54795;SDS011;40693;43.884;20.340;2023-02-24T04:32:37;36.45;;;24.88;;
54795;SDS011;40693;43.884;20.340;2023-02-24T04:38:23;46.53;;;31.73;;
54795;SDS011;40693;43.884;20.340;2023-02-24T04:40:49;36.20;;;24.05;;
54795;SDS011;40693;43.884;20.340;2023-02-24T04:43:15;35.95;;;25.33;;
54795;SDS011;40693;43.884;20.340;2023-02-24T04:49:01;69.68;;;45.75;;
54795;SDS011;40693;43.884;20.340;2023-02-24T04:51:32;99.13;;;59.65;;
54795;SDS011;40693;43.884;20.340;2023-02-24T04:54:07;74.85;;;47.35;;
54795;SDS011;40693;43.884;20.340;2023-02-24T04:56:54;52.58;;;32.67;;
54795;SDS011;40693;43.884;20.340;2023-02-24T04:59:36;58.17;;;35.53;;
54795;SDS011;40693;43.884;20.340;2023-02-24T05:02:07;61.45;;;37.10;;
54795;SDS011;40693;43.884;20.340;2023-02-24T05:04:35;73.75;;;48.78;;
54795;SDS011;40693;43.884;20.340;2023-02-24T05:07:02;46.20;;;32.60;;
54795;SDS011;40693;43.884;20.340;2023-02-24T05:09:31;36.90;;;25.88;;
54795;SDS011;40693;43.884;20.340;2023-02-24T05:12:08;47.60;;;29.83;;
54795;SDS011;40693;43.884;20.340;2023-02-24T05:14:33;39.53;;;26.90;;
54795;SDS011;40693;43.884;20.340;2023-02-24T05:16:59;39.67;;;26.63;;
54795;SDS011;40693;43.884;20.340;2023-02-24T05:22:32;44.83;;;27.30;;
54795;SDS011;40693;43.884;20.340;2023-02-24T05:27:56;41.50;;;28.05;;
54795;SDS011;40693;43.884;20.340;2023-02-24T05:30:41;42.33;;;29.58;;
54795;SDS011;40693;43.884;20.340;2023-02-24T05:33:20;45.00;;;30.30;;
54795;SDS011;40693;43.884;20.340;2023-02-24T05:35:47;42.67;;;27.48;;
54795;SDS011;40693;43.884;20.340;2023-02-24T05:38:20;46.35;;;32.60;;
54795;SDS011;40693;43.884;20.340;2023-02-24T05:40:54;40.55;;;28.13;;
54795;SDS011;40693;43.884;20.340;2023-02-24T05:43:31;39.10;;;26.42;;
54795;SDS011;40693;43.884;20.340;2023-02-24T05:46:06;41.13;;;29.23;;
54795;SDS011;40693;43.884;20.340;2023-02-24T05:48:44;38.08;;;26.35;;
54795;SDS011;40693;43.884;20.340;2023-02-24T05:51:21;40.30;;;25.33;;
54795;SDS011;40693;43.884;20.340;2023-02-24T05:53:51;44.70;;;30.55;;
54795;SDS011;40693;43.884;20.340;2023-02-24T05:56:23;50.95;;;32.70;;
54795;SDS011;40693;43.884;20.340;2023-02-24T05:58:49;47.00;;;32.22;;
54795;SDS011;40693;43.884;20.340;2023-02-24T06:01:25;50.33;;;32.58;;
54795;SDS011;40693;43.884;20.340;2023-02-24T06:03:54;45.78;;;30.30;;
54795;SDS011;40693;43.884;20.340;2023-02-24T06:06:28;37.53;;;28.30;;
54795;SDS011;40693;43.884;20.340;2023-02-24T06:12:02;46.25;;;29.17;;
54795;SDS011;40693;43.884;20.340;2023-02-24T06:14:42;48.97;;;32.50;;
54795;SDS011;40693;43.884;20.340;2023-02-24T06:17:09;61.05;;;34.03;;
54795;SDS011;40693;43.884;20.340;2023-02-24T06:19:35;49.17;;;31.23;;
54795;SDS011;40693;43.884;20.340;2023-02-24T06:22:11;52.45;;;31.15;;
54795;SDS011;40693;43.884;20.340;2023-02-24T06:24:45;53.63;;;30.63;;
54795;SDS011;40693;43.884;20.340;2023-02-24T06:27:21;46.40;;;29.38;;
54795;SDS011;40693;43.884;20.340;2023-02-24T06:29:57;39.95;;;28.17;;
54795;SDS011;40693;43.884;20.340;2023-02-24T06:32:25;56.03;;;33.63;;
54795;SDS011;40693;43.884;20.340;2023-02-24T06:34:51;45.00;;;30.15;;
54795;SDS011;40693;43.884;20.340;2023-02-24T06:37:22;47.65;;;31.88;;
54795;SDS011;40693;43.884;20.340;2023-02-24T06:39:47;53.25;;;33.35;;
54795;SDS011;40693;43.884;20.340;2023-02-24T06:42:19;41.17;;;27.88;;
54795;SDS011;40693;43.884;20.340;2023-02-24T06:44:53;38.50;;;26.30;;
54795;SDS011;40693;43.884;20.340;2023-02-24T06:47:19;33.20;;;24.15;;
54795;SDS011;40693;43.884;20.340;2023-02-24T06:49:46;38.83;;;24.88;;
54795;SDS011;40693;43.884;20.340;2023-02-24T06:52:12;35.55;;;24.55;;
54795;SDS011;40693;43.884;20.340;2023-02-24T06:55:00;35.08;;;24.45;;
54795;SDS011;40693;43.884;20.340;2023-02-24T06:57:55;36.40;;;23.30;;
54795;SDS011;40693;43.884;20.340;2023-02-24T07:00:26;40.38;;;26.58;;
54795;SDS011;40693;43.884;20.340;2023-02-24T07:03:15;43.42;;;28.85;;
54795;SDS011;40693;43.884;20.340;2023-02-24T07:05:51;46.72;;;30.50;;
54795;SDS011;40693;43.884;20.340;2023-02-24T07:08:34;40.35;;;29.70;;
54795;SDS011;40693;43.884;20.340;2023-02-24T07:11:06;36.90;;;26.73;;
54795;SDS011;40693;43.884;20.340;2023-02-24T07:13:32;47.20;;;35.15;;
54795;SDS011;40693;43.884;20.340;2023-02-24T07:15:58;57.45;;;35.67;;
54795;SDS011;40693;43.884;20.340;2023-02-24T07:18:31;54.03;;;34.20;;
54795;SDS011;40693;43.884;20.340;2023-02-24T07:21:00;57.88;;;37.58;;
54795;SDS011;40693;43.884;20.340;2023-02-24T07:23:35;63.25;;;41.20;;
54795;SDS011;40693;43.884;20.340;2023-02-24T07:26:38;57.50;;;36.67;;
54795;SDS011;40693;43.884;20.340;2023-02-24T07:28:57;58.72;;;36.45;;
54795;SDS011;40693;43.884;20.340;2023-02-24T07:31:29;51.20;;;32.60;;
54795;SDS011;40693;43.884;20.340;2023-02-24T07:34:01;46.92;;;31.55;;
54795;SDS011;40693;43.884;20.340;2023-02-24T07:36:27;44.58;;;29.40;;
54795;SDS011;40693;43.884;20.340;2023-02-24T07:39:03;51.63;;;33.20;;
54795;SDS011;40693;43.884;20.340;2023-02-24T07:41:39;47.75;;;32.58;;
54795;SDS011;40693;43.884;20.340;2023-02-24T07:44:09;49.67;;;34.92;;
54795;SDS011;40693;43.884;20.340;2023-02-24T07:46:35;45.28;;;29.92;;
54795;SDS011;40693;43.884;20.340;2023-02-24T07:49:02;41.72;;;29.02;;
54795;SDS011;40693;43.884;20.340;2023-02-24T07:51:29;44.70;;;30.85;;
54795;SDS011;40693;43.884;20.340;2023-02-24T07:53:57;53.40;;;34.00;;
54795;SDS011;40693;43.884;20.340;2023-02-24T07:56:25;49.97;;;33.55;;
54795;SDS011;40693;43.884;20.340;2023-02-24T07:58:53;41.90;;;29.27;;
54795;SDS011;40693;43.884;20.340;2023-02-24T08:01:25;39.88;;;26.00;;
54795;SDS011;40693;43.884;20.340;2023-02-24T08:04:03;45.35;;;30.10;;
54795;SDS011;40693;43.884;20.340;2023-02-24T08:06:35;42.15;;;28.77;;
54795;SDS011;40693;43.884;20.340;2023-02-24T08:14:45;37.22;;;25.17;;
54795;SDS011;40693;43.884;20.340;2023-02-24T08:17:15;44.22;;;27.95;;
54795;SDS011;40693;43.884;20.340;2023-02-24T08:19:45;36.83;;;24.90;;
54795;SDS011;40693;43.884;20.340;2023-02-24T08:22:15;38.90;;;27.80;;
54795;SDS011;40693;43.884;20.340;2023-02-24T08:25:16;41.75;;;26.13;;
54795;SDS011;40693;43.884;20.340;2023-02-24T08:27:43;41.70;;;27.42;;
54795;SDS011;40693;43.884;20.340;2023-02-24T08:30:22;42.65;;;29.65;;
54795;SDS011;40693;43.884;20.340;2023-02-24T08:32:50;38.80;;;26.02;;
54795;SDS011;40693;43.884;20.340;2023-02-24T08:41:41;37.60;;;25.60;;
54795;SDS011;40693;43.884;20.340;2023-02-24T08:44:12;40.67;;;27.65;;
54795;SDS011;40693;43.884;20.340;2023-02-24T08:46:43;39.92;;;27.85;;
54795;SDS011;40693;43.884;20.340;2023-02-24T08:49:12;38.13;;;26.58;;
54795;SDS011;40693;43.884;20.340;2023-02-24T08:51:41;42.42;;;29.10;;
54795;SDS011;40693;43.884;20.340;2023-02-24T08:54:15;42.13;;;28.88;;
54795;SDS011;40693;43.884;20.340;2023-02-24T08:56:43;44.80;;;29.85;;
54795;SDS011;40693;43.884;20.340;2023-02-24T08:59:16;46.97;;;33.88;;
54795;SDS011;40693;43.884;20.340;2023-02-24T09:02:27;48.20;;;29.58;;
54795;SDS011;40693;43.884;20.340;2023-02-24T09:05:02;40.63;;;28.60;;
54795;SDS011;40693;43.884;20.340;2023-02-24T09:07:36;42.55;;;29.65;;
54795;SDS011;40693;43.884;20.340;2023-02-24T09:10:14;41.03;;;29.35;;
54795;SDS011;40693;43.884;20.340;2023-02-24T09:12:44;37.72;;;27.10;;
54795;SDS011;40693;43.884;20.340;2023-02-24T09:15:15;40.85;;;28.00;;
54795;SDS011;40693;43.884;20.340;2023-02-24T09:17:42;42.80;;;27.98;;
54795;SDS011;40693;43.884;20.340;2023-02-24T09:20:28;44.05;;;26.95;;
54795;SDS011;40693;43.884;20.340;2023-02-24T09:23:20;39.90;;;26.77;;
54795;SDS011;40693;43.884;20.340;2023-02-24T09:25:54;37.30;;;27.67;;
54795;SDS011;40693;43.884;20.340;2023-02-24T09:29:20;66.15;;;40.75;;
54795;SDS011;40693;43.884;20.340;2023-02-24T09:32:03;41.95;;;29.05;;
54795;SDS011;40693;43.884;20.340;2023-02-24T09:34:41;42.85;;;31.85;;
54795;SDS011;40693;43.884;20.340;2023-02-24T09:37:10;48.05;;;30.58;;
54795;SDS011;40693;43.884;20.340;2023-02-24T09:40:19;40.97;;;30.70;;
54795;SDS011;40693;43.884;20.340;2023-02-24T09:42:45;43.92;;;31.17;;
54795;SDS011;40693;43.884;20.340;2023-02-24T09:45:20;42.28;;;28.13;;
54795;SDS011;40693;43.884;20.340;2023-02-24T09:48:01;44.15;;;30.10;;
54795;SDS011;40693;43.884;20.340;2023-02-24T09:50:37;43.65;;;29.10;;
54795;SDS011;40693;43.884;20.340;2023-02-24T09:53:25;40.13;;;28.25;;
54795;SDS011;40693;43.884;20.340;2023-02-24T09:55:58;39.17;;;29.63;;
54795;SDS011;40693;43.884;20.340;2023-02-24T10:10:06;44.38;;;31.80;;
54795;SDS011;40693;43.884;20.340;2023-02-24T10:15:54;39.22;;;29.77;;
54795;SDS011;40693;43.884;20.340;2023-02-24T10:24:26;43.95;;;30.77;;
54795;SDS011;40693;43.884;20.340;2023-02-24T10:32:32;53.83;;;39.00;;
54795;SDS011;40693;43.884;20.340;2023-02-24T10:35:24;41.80;;;29.33;;
54795;SDS011;40693;43.884;20.340;2023-02-24T10:37:57;52.28;;;38.28;;
54795;SDS011;40693;43.884;20.340;2023-02-24T10:40:29;44.03;;;30.27;;
54795;SDS011;40693;43.884;20.340;2023-02-24T10:43:14;36.97;;;26.25;;
54795;SDS011;40693;43.884;20.340;2023-02-24T10:45:53;31.67;;;24.60;;
54795;SDS011;40693;43.884;20.340;2023-02-24T10:48:32;42.05;;;28.90;;
54795;SDS011;40693;43.884;20.340;2023-02-24T10:51:12;37.22;;;24.95;;
54795;SDS011;40693;43.884;20.340;2023-02-24T10:57:27;44.35;;;26.02;;
54795;SDS011;40693;43.884;20.340;2023-02-24T11:00:15;42.63;;;27.83;;
54795;SDS011;40693;43.884;20.340;2023-02-24T11:03:05;45.70;;;29.48;;
54795;SDS011;40693;43.884;20.340;2023-02-24T11:05:46;52.20;;;37.25;;
54795;SDS011;40693;43.884;20.340;2023-02-24T11:08:39;37.42;;;24.70;;
54795;SDS011;40693;43.884;20.340;2023-02-24T11:11:14;31.30;;;22.17;;
54795;SDS011;40693;43.884;20.340;2023-02-24T11:14:00;33.65;;;21.88;;
54795;SDS011;40693;43.884;20.340;2023-02-24T11:16:46;37.97;;;25.60;;
54795;SDS011;40693;43.884;20.340;2023-02-24T11:19:42;36.95;;;26.13;;
54795;SDS011;40693;43.884;20.340;2023-02-24T11:22:14;35.40;;;23.20;;
54795;SDS011;40693;43.884;20.340;2023-02-24T11:24:51;41.45;;;27.75;;
54795;SDS011;40693;43.884;20.340;2023-02-24T11:27:19;29.77;;;21.98;;
54795;SDS011;40693;43.884;20.340;2023-02-24T11:29:59;45.47;;;30.75;;
54795;SDS011;40693;43.884;20.340;2023-02-24T11:36:08;40.15;;;28.40;;
54795;SDS011;40693;43.884;20.340;2023-02-24T11:38:51;39.22;;;23.20;;
54795;SDS011;40693;43.884;20.340;2023-02-24T11:41:35;28.48;;;18.52;;
54795;SDS011;40693;43.884;20.340;2023-02-24T11:46:43;35.28;;;24.63;;
54795;SDS011;40693;43.884;20.340;2023-02-24T11:52:13;39.35;;;24.08;;
54795;SDS011;40693;43.884;20.340;2023-02-24T11:54:46;32.38;;;21.80;;
54795;SDS011;40693;43.884;20.340;2023-02-24T11:57:21;26.17;;;18.63;;
54795;SDS011;40693;43.884;20.340;2023-02-24T12:02:51;34.42;;;18.48;;
54795;SDS011;40693;43.884;20.340;2023-02-24T12:05:26;32.67;;;19.88;;
54795;SDS011;40693;43.884;20.340;2023-02-24T12:11:00;27.92;;;18.63;;
54795;SDS011;40693;43.884;20.340;2023-02-24T12:13:55;26.90;;;18.63;;
54795;SDS011;40693;43.884;20.340;2023-02-24T12:16:31;27.90;;;18.27;;
54795;SDS011;40693;43.884;20.340;2023-02-24T12:19:08;26.63;;;14.95;;
54795;SDS011;40693;43.884;20.340;2023-02-24T12:21:42;16.60;;;7.25;;
54795;SDS011;40693;43.884;20.340;2023-02-24T12:24:16;67.30;;;35.38;;
54795;SDS011;40693;43.884;20.340;2023-02-24T12:27:02;16.60;;;7.05;;
54795;SDS011;40693;43.884;20.340;2023-02-24T12:35:30;20.63;;;7.80;;
54795;SDS011;40693;43.884;20.340;2023-02-24T12:44:18;18.55;;;6.82;;
54795;SDS011;40693;43.884;20.340;2023-02-24T12:47:00;23.63;;;8.85;;
54795;SDS011;40693;43.884;20.340;2023-02-24T12:52:30;19.25;;;6.70;;
54795;SDS011;40693;43.884;20.340;2023-02-24T12:55:08;20.80;;;6.47;;
54795;SDS011;40693;43.884;20.340;2023-02-24T12:57:47;17.45;;;8.00;;
54795;SDS011;40693;43.884;20.340;2023-02-24T13:00:29;21.42;;;7.50;;
54795;SDS011;40693;43.884;20.340;2023-02-24T13:03:15;23.60;;;7.28;;
54795;SDS011;40693;43.884;20.340;2023-02-24T13:13:48;20.52;;;6.53;;
54795;SDS011;40693;43.884;20.340;2023-02-24T13:16:32;17.90;;;8.48;;
54795;SDS011;40693;43.884;20.340;2023-02-24T13:19:05;27.92;;;10.27;;
54795;SDS011;40693;43.884;20.340;2023-02-24T13:21:57;27.40;;;10.07;;
54795;SDS011;40693;43.884;20.340;2023-02-24T13:24:35;16.52;;;7.05;;
54795;SDS011;40693;43.884;20.340;2023-02-24T13:27:26;23.90;;;9.55;;
54795;SDS011;40693;43.884;20.340;2023-02-24T13:29:55;19.88;;;7.18;;
54795;SDS011;40693;43.884;20.340;2023-02-24T13:41:05;27.55;;;12.43;;
54795;SDS011;40693;43.884;20.340;2023-02-24T13:43:36;24.00;;;10.18;;
54795;SDS011;40693;43.884;20.340;2023-02-24T13:46:12;28.80;;;11.48;;
54795;SDS011;40693;43.884;20.340;2023-02-24T13:51:40;24.50;;;11.27;;
54795;SDS011;40693;43.884;20.340;2023-02-24T14:02:52;23.17;;;10.38;;
54795;SDS011;40693;43.884;20.340;2023-02-24T14:05:32;23.65;;;10.25;;
54795;SDS011;40693;43.884;20.340;2023-02-24T14:11:20;24.67;;;9.15;;
54795;SDS011;40693;43.884;20.340;2023-02-24T14:14:15;19.98;;;8.90;;
54795;SDS011;40693;43.884;20.340;2023-02-24T14:16:55;18.15;;;8.95;;
54795;SDS011;40693;43.884;20.340;2023-02-24T14:19:23;25.58;;;10.13;;
54795;SDS011;40693;43.884;20.340;2023-02-24T14:21:59;23.38;;;11.48;;
54795;SDS011;40693;43.884;20.340;2023-02-24T14:24:48;20.38;;;9.60;;
54795;SDS011;40693;43.884;20.340;2023-02-24T14:27:26;42.97;;;14.30;;
54795;SDS011;40693;43.884;20.340;2023-02-24T14:29:51;32.95;;;16.10;;
54795;SDS011;40693;43.884;20.340;2023-02-24T14:32:23;31.42;;;11.95;;
54795;SDS011;40693;43.884;20.340;2023-02-24T14:35:44;28.75;;;13.20;;
54795;SDS011;40693;43.884;20.340;2023-02-24T14:38:38;40.17;;;19.58;;
54795;SDS011;40693;43.884;20.340;2023-02-24T14:41:48;33.05;;;17.58;;
54795;SDS011;40693;43.884;20.340;2023-02-24T14:46:50;24.95;;;14.52;;
54795;SDS011;40693;43.884;20.340;2023-02-24T14:49:21;28.67;;;13.30;;
54795;SDS011;40693;43.884;20.340;2023-02-24T14:51:57;25.20;;;13.63;;
54795;SDS011;40693;43.884;20.340;2023-02-24T15:00:36;25.80;;;11.13;;
54795;SDS011;40693;43.884;20.340;2023-02-24T15:03:16;31.80;;;16.70;;
54795;SDS011;40693;43.884;20.340;2023-02-24T15:05:49;34.45;;;14.45;;
54795;SDS011;40693;43.884;20.340;2023-02-24T15:11:10;26.58;;;13.73;;
54795;SDS011;40693;43.884;20.340;2023-02-24T15:16:19;37.42;;;14.00;;
54795;SDS011;40693;43.884;20.340;2023-02-24T15:18:53;39.95;;;16.77;;
54795;SDS011;40693;43.884;20.340;2023-02-24T15:21:32;35.45;;;17.65;;
54795;SDS011;40693;43.884;20.340;2023-02-24T15:24:15;37.08;;;18.13;;
54795;SDS011;40693;43.884;20.340;2023-02-24T15:26:51;34.35;;;16.45;;
54795;SDS011;40693;43.884;20.340;2023-02-24T15:32:44;33.25;;;16.90;;
54795;SDS011;40693;43.884;20.340;2023-02-24T15:38:27;55.47;;;27.55;;
54795;SDS011;40693;43.884;20.340;2023-02-24T15:40:58;36.97;;;17.15;;
54795;SDS011;40693;43.884;20.340;2023-02-24T15:43:33;70.05;;;36.60;;
54795;SDS011;40693;43.884;20.340;2023-02-24T15:48:53;85.68;;;42.63;;
54795;SDS011;40693;43.884;20.340;2023-02-24T15:54:10;34.95;;;18.40;;
54795;SDS011;40693;43.884;20.340;2023-02-24T15:56:39;51.17;;;26.33;;
54795;SDS011;40693;43.884;20.340;2023-02-24T15:59:07;135.18;;;75.47;;
54795;SDS011;40693;43.884;20.340;2023-02-24T16:01:54;72.55;;;42.03;;
54795;SDS011;40693;43.884;20.340;2023-02-24T16:04:56;71.18;;;46.05;;
54795;SDS011;40693;43.884;20.340;2023-02-24T16:07:48;81.55;;;50.08;;
54795;SDS011;40693;43.884;20.340;2023-02-24T16:10:20;95.10;;;58.35;;
54795;SDS011;40693;43.884;20.340;2023-02-24T16:16:10;91.95;;;54.75;;
54795;SDS011;40693;43.884;20.340;2023-02-24T16:18:57;92.15;;;57.00;;
54795;SDS011;40693;43.884;20.340;2023-02-24T16:21:34;80.93;;;53.58;;
54795;SDS011;40693;43.884;20.340;2023-02-24T16:27:38;72.75;;;38.75;;
54795;SDS011;40693;43.884;20.340;2023-02-24T16:30:08;47.92;;;20.27;;
54795;SDS011;40693;43.884;20.340;2023-02-24T16:32:53;56.50;;;27.40;;
54795;SDS011;40693;43.884;20.340;2023-02-24T16:35:27;71.30;;;40.15;;
54795;SDS011;40693;43.884;20.340;2023-02-24T16:40:41;52.90;;;28.63;;
54795;SDS011;40693;43.884;20.340;2023-02-24T16:43:07;64.97;;;33.92;;
54795;SDS011;40693;43.884;20.340;2023-02-24T16:45:33;41.63;;;23.83;;
54795;SDS011;40693;43.884;20.340;2023-02-24T16:48:05;48.58;;;30.05;;
54795;SDS011;40693;43.884;20.340;2023-02-24T16:50:49;61.45;;;31.05;;
54795;SDS011;40693;43.884;20.340;2023-02-24T16:53:16;166.98;;;89.55;;
54795;SDS011;40693;43.884;20.340;2023-02-24T16:55:51;228.80;;;120.18;;
54795;SDS011;40693;43.884;20.340;2023-02-24T16:58:43;172.45;;;98.63;;
54795;SDS011;40693;43.884;20.340;2023-02-24T17:03:43;102.30;;;48.17;;
54795;SDS011;40693;43.884;20.340;2023-02-24T17:06:39;96.72;;;58.10;;
54795;SDS011;40693;43.884;20.340;2023-02-24T17:09:47;118.20;;;70.47;;
54795;SDS011;40693;43.884;20.340;2023-02-24T17:12:19;127.43;;;78.70;;
54795;SDS011;40693;43.884;20.340;2023-02-24T17:14:51;134.20;;;78.60;;
54795;SDS011;40693;43.884;20.340;2023-02-24T17:17:19;68.55;;;37.88;;
54795;SDS011;40693;43.884;20.340;2023-02-24T17:20:05;71.38;;;38.97;;
54795;SDS011;40693;43.884;20.340;2023-02-24T17:26:01;136.75;;;89.30;;
54795;SDS011;40693;43.884;20.340;2023-02-24T17:28:33;125.38;;;75.95;;
54795;SDS011;40693;43.884;20.340;2023-02-24T17:31:04;89.15;;;54.10;;
54795;SDS011;40693;43.884;20.340;2023-02-24T17:33:46;119.32;;;66.35;;
54795;SDS011;40693;43.884;20.340;2023-02-24T17:36:15;55.92;;;27.33;;
54795;SDS011;40693;43.884;20.340;2023-02-24T17:38:58;54.25;;;31.63;;
54795;SDS011;40693;43.884;20.340;2023-02-24T17:41:27;48.60;;;25.42;;
54795;SDS011;40693;43.884;20.340;2023-02-24T17:44:14;90.68;;;48.20;;
54795;SDS011;40693;43.884;20.340;2023-02-24T17:49:42;62.88;;;33.47;;
54795;SDS011;40693;43.884;20.340;2023-02-24T17:52:16;34.90;;;20.90;;
54795;SDS011;40693;43.884;20.340;2023-02-24T17:54:44;43.40;;;21.60;;
54795;SDS011;40693;43.884;20.340;2023-02-24T17:57:11;46.35;;;20.70;;
54795;SDS011;40693;43.884;20.340;2023-02-24T17:59:41;37.05;;;14.05;;
54795;SDS011;40693;43.884;20.340;2023-02-24T18:02:10;25.95;;;13.50;;
54795;SDS011;40693;43.884;20.340;2023-02-24T18:04:36;35.00;;;16.90;;
54795;SDS011;40693;43.884;20.340;2023-02-24T18:07:02;29.70;;;13.93;;
54795;SDS011;40693;43.884;20.340;2023-02-24T18:09:28;34.38;;;17.90;;
54795;SDS011;40693;43.884;20.340;2023-02-24T18:11:53;32.17;;;17.23;;
54795;SDS011;40693;43.884;20.340;2023-02-24T18:14:19;24.33;;;11.05;;
54795;SDS011;40693;43.884;20.340;2023-02-24T18:16:45;31.25;;;15.23;;
54795;SDS011;40693;43.884;20.340;2023-02-24T18:19:17;28.65;;;13.82;;
54795;SDS011;40693;43.884;20.340;2023-02-24T18:22:11;24.77;;;11.50;;
54795;SDS011;40693;43.884;20.340;2023-02-24T18:24:36;20.85;;;8.65;;
54795;SDS011;40693;43.884;20.340;2023-02-24T18:27:05;28.90;;;11.95;;
54795;SDS011;40693;43.884;20.340;2023-02-24T18:29:31;18.38;;;10.25;;
54795;SDS011;40693;43.884;20.340;2023-02-24T18:31:57;25.48;;;9.40;;
54795;SDS011;40693;43.884;20.340;2023-02-24T18:34:23;29.17;;;15.65;;
54795;SDS011;40693;43.884;20.340;2023-02-24T18:36:49;33.47;;;11.90;;
54795;SDS011;40693;43.884;20.340;2023-02-24T18:39:22;33.17;;;12.98;;
54795;SDS011;40693;43.884;20.340;2023-02-24T18:42:07;25.50;;;12.82;;
54795;SDS011;40693;43.884;20.340;2023-02-24T18:44:36;26.25;;;13.48;;
54795;SDS011;40693;43.884;20.340;2023-02-24T18:47:21;26.08;;;11.25;;
54795;SDS011;40693;43.884;20.340;2023-02-24T18:49:47;23.95;;;12.13;;
54795;SDS011;40693;43.884;20.340;2023-02-24T18:55:10;30.27;;;12.50;;
54795;SDS011;40693;43.884;20.340;2023-02-24T19:00:34;22.60;;;10.75;;
54795;SDS011;40693;43.884;20.340;2023-02-24T19:03:02;21.15;;;9.95;;